sensor_id;sensor_type;location;lat;lon;timestamp;pressure;altitude;pressure_sealevel;temperature;humidity
62697;BME280;48761;42.680;23.312;2023-11-18T00:02:09;94105.16;;;6.83;86.69
62697;BME280;48761;42.680;23.312;2023-11-18T00:04:35;94111.56;;;7.20;86.79
62697;BME280;48761;42.680;23.312;2023-11-18T00:07:01;94098.09;;;6.97;86.27
62697;BME280;48761;42.680;23.312;2023-11-18T00:09:27;94081.00;;;6.90;87.08
62697;BME280;48761;42.680;23.312;2023-11-18T00:11:54;94069.34;;;7.05;85.56
62697;BME280;48761;42.680;23.312;2023-11-18T00:14:22;94104.03;;;7.14;86.17
62697;BME280;48761;42.680;23.312;2023-11-18T00:16:48;94114.59;;;7.14;84.99
62697;BME280;48761;42.680;23.312;2023-11-18T00:19:17;94100.53;;;6.87;85.02
62697;BME280;48761;42.680;23.312;2023-11-18T00:21:43;94144.25;;;6.78;85.55
62697;BME280;48761;42.680;23.312;2023-11-18T00:24:09;94143.34;;;6.92;85.42
62697;BME280;48761;42.680;23.312;2023-11-18T00:26:35;94130.78;;;7.09;85.53
62697;BME280;48761;42.680;23.312;2023-11-18T00:29:01;94119.66;;;7.04;85.73
62697;BME280;48761;42.680;23.312;2023-11-18T00:31:27;94097.78;;;7.02;84.59
62697;BME280;48761;42.680;23.312;2023-11-18T00:33:53;94097.78;;;6.89;85.45
62697;BME280;48761;42.680;23.312;2023-11-18T00:36:19;94108.69;;;6.97;84.79
62697;BME280;48761;42.680;23.312;2023-11-18T00:38:47;94104.22;;;6.84;84.75
62697;BME280;48761;42.680;23.312;2023-11-18T00:41:13;94092.25;;;6.66;86.09
62697;BME280;48761;42.680;23.312;2023-11-18T00:43:38;94108.22;;;6.77;86.18
62697;BME280;48761;42.680;23.312;2023-11-18T00:46:04;94106.34;;;6.92;85.19
62697;BME280;48761;42.680;23.312;2023-11-18T00:48:30;94083.66;;;6.49;85.51
62697;BME280;48761;42.680;23.312;2023-11-18T00:50:56;94109.25;;;6.61;85.17
62697;BME280;48761;42.680;23.312;2023-11-18T00:53:22;94112.25;;;6.70;85.74
62697;BME280;48761;42.680;23.312;2023-11-18T00:55:48;94121.47;;;6.49;85.83
62697;BME280;48761;42.680;23.312;2023-11-18T00:58:17;94114.25;;;6.38;86.44
62697;BME280;48761;42.680;23.312;2023-11-18T01:00:43;94113.03;;;6.57;85.58
62697;BME280;48761;42.680;23.312;2023-11-18T01:03:09;94126.56;;;6.66;85.73
62697;BME280;48761;42.680;23.312;2023-11-18T01:05:36;94107.31;;;6.50;85.95
62697;BME280;48761;42.680;23.312;2023-11-18T01:08:02;94122.50;;;6.75;85.22
62697;BME280;48761;42.680;23.312;2023-11-18T01:10:29;94117.81;;;6.37;85.59
62697;BME280;48761;42.680;23.312;2023-11-18T01:12:55;94111.72;;;6.37;85.50
62697;BME280;48761;42.680;23.312;2023-11-18T01:15:21;94135.38;;;6.38;86.22
62697;BME280;48761;42.680;23.312;2023-11-18T01:17:47;94140.47;;;6.27;86.64
62697;BME280;48761;42.680;23.312;2023-11-18T01:20:13;94147.16;;;6.33;86.76
62697;BME280;48761;42.680;23.312;2023-11-18T01:22:39;94140.16;;;6.19;85.70
62697;BME280;48761;42.680;23.312;2023-11-18T01:25:06;94141.75;;;6.49;85.76
62697;BME280;48761;42.680;23.312;2023-11-18T01:27:32;94126.28;;;6.43;85.64
62697;BME280;48761;42.680;23.312;2023-11-18T01:29:58;94145.00;;;6.39;86.05
62697;BME280;48761;42.680;23.312;2023-11-18T01:32:24;94132.97;;;6.21;85.68
62697;BME280;48761;42.680;23.312;2023-11-18T01:34:49;94130.94;;;6.11;85.77
62697;BME280;48761;42.680;23.312;2023-11-18T01:37:16;94152.31;;;6.49;85.17
62697;BME280;48761;42.680;23.312;2023-11-18T01:39:42;94141.81;;;6.20;85.78
62697;BME280;48761;42.680;23.312;2023-11-18T01:42:08;94127.44;;;6.11;85.58
62697;BME280;48761;42.680;23.312;2023-11-18T01:44:34;94138.84;;;6.11;85.62
62697;BME280;48761;42.680;23.312;2023-11-18T01:47:04;94130.19;;;6.09;86.40
62697;BME280;48761;42.680;23.312;2023-11-18T01:49:30;94141.38;;;5.98;85.53
62697;BME280;48761;42.680;23.312;2023-11-18T01:51:56;94118.88;;;5.92;84.72
62697;BME280;48761;42.680;23.312;2023-11-18T01:54:22;94139.91;;;5.79;84.29
62697;BME280;48761;42.680;23.312;2023-11-18T01:56:49;94141.84;;;6.05;85.44
62697;BME280;48761;42.680;23.312;2023-11-18T01:59:16;94134.97;;;6.02;86.00
62697;BME280;48761;42.680;23.312;2023-11-18T02:01:42;94134.13;;;6.16;84.92
62697;BME280;48761;42.680;23.312;2023-11-18T02:04:08;94140.75;;;6.09;84.65
62697;BME280;48761;42.680;23.312;2023-11-18T02:06:34;94135.28;;;5.83;84.62
62697;BME280;48761;42.680;23.312;2023-11-18T02:09:00;94135.84;;;5.88;84.38
62697;BME280;48761;42.680;23.312;2023-11-18T02:11:33;94146.16;;;5.64;83.98
62697;BME280;48761;42.680;23.312;2023-11-18T02:14:02;94153.34;;;5.89;83.16
62697;BME280;48761;42.680;23.312;2023-11-18T02:16:29;94101.03;;;5.39;82.14
62697;BME280;48761;42.680;23.312;2023-11-18T02:18:55;94141.91;;;5.76;83.16
62697;BME280;48761;42.680;23.312;2023-11-18T02:21:22;94137.25;;;5.94;82.11
62697;BME280;48761;42.680;23.312;2023-11-18T02:23:48;94151.31;;;5.80;81.23
62697;BME280;48761;42.680;23.312;2023-11-18T02:26:22;94156.47;;;6.11;81.54
62697;BME280;48761;42.680;23.312;2023-11-18T02:28:48;94147.34;;;5.87;81.20
62697;BME280;48761;42.680;23.312;2023-11-18T02:31:18;94144.34;;;5.79;82.26
62697;BME280;48761;42.680;23.312;2023-11-18T02:33:50;94145.66;;;5.71;81.34
62697;BME280;48761;42.680;23.312;2023-11-18T02:36:28;94132.25;;;6.04;80.42
62697;BME280;48761;42.680;23.312;2023-11-18T02:38:56;94135.72;;;6.19;79.05
62697;BME280;48761;42.680;23.312;2023-11-18T02:41:23;94148.47;;;5.83;79.68
62697;BME280;48761;42.680;23.312;2023-11-18T02:43:53;94156.69;;;5.64;79.78
62697;BME280;48761;42.680;23.312;2023-11-18T02:46:20;94158.28;;;5.52;80.72
62697;BME280;48761;42.680;23.312;2023-11-18T02:48:47;94160.91;;;5.37;80.86
62697;BME280;48761;42.680;23.312;2023-11-18T02:51:13;94165.63;;;5.46;80.19
62697;BME280;48761;42.680;23.312;2023-11-18T02:53:42;94160.91;;;5.52;80.10
62697;BME280;48761;42.680;23.312;2023-11-18T02:56:08;94144.53;;;5.46;80.09
62697;BME280;48761;42.680;23.312;2023-11-18T02:58:34;94161.09;;;5.34;79.07
62697;BME280;48761;42.680;23.312;2023-11-18T03:01:00;94152.09;;;5.38;79.53
62697;BME280;48761;42.680;23.312;2023-11-18T03:03:26;94169.53;;;5.10;79.31
62697;BME280;48761;42.680;23.312;2023-11-18T03:05:52;94169.72;;;5.07;80.09
62697;BME280;48761;42.680;23.312;2023-11-18T03:08:18;94167.41;;;5.31;79.31
62697;BME280;48761;42.680;23.312;2023-11-18T03:10:44;94174.56;;;4.84;79.81
62697;BME280;48761;42.680;23.312;2023-11-18T03:13:10;94187.56;;;4.87;80.39
62697;BME280;48761;42.680;23.312;2023-11-18T03:15:36;94181.16;;;4.91;80.04
62697;BME280;48761;42.680;23.312;2023-11-18T03:18:02;94193.25;;;5.10;78.57
62697;BME280;48761;42.680;23.312;2023-11-18T03:20:28;94199.56;;;4.76;79.38
62697;BME280;48761;42.680;23.312;2023-11-18T03:22:54;94203.03;;;5.08;80.13
62697;BME280;48761;42.680;23.312;2023-11-18T03:25:24;94201.19;;;5.24;78.90
62697;BME280;48761;42.680;23.312;2023-11-18T03:27:52;94204.91;;;4.75;80.10
62697;BME280;48761;42.680;23.312;2023-11-18T03:30:18;94204.47;;;4.82;79.12
62697;BME280;48761;42.680;23.312;2023-11-18T03:32:47;94198.66;;;4.92;78.81
62697;BME280;48761;42.680;23.312;2023-11-18T03:35:13;94188.69;;;4.82;79.10
62697;BME280;48761;42.680;23.312;2023-11-18T03:37:39;94193.03;;;4.98;78.19
62697;BME280;48761;42.680;23.312;2023-11-18T03:42:33;94216.53;;;4.70;78.57
62697;BME280;48761;42.680;23.312;2023-11-18T03:45:00;94206.97;;;4.53;78.03
62697;BME280;48761;42.680;23.312;2023-11-18T03:47:26;94209.03;;;4.95;78.20
62697;BME280;48761;42.680;23.312;2023-11-18T03:49:52;94199.72;;;4.73;77.83
62697;BME280;48761;42.680;23.312;2023-11-18T03:52:18;94195.69;;;4.51;78.62
62697;BME280;48761;42.680;23.312;2023-11-18T03:54:44;94186.97;;;4.18;78.64
62697;BME280;48761;42.680;23.312;2023-11-18T03:57:10;94174.53;;;4.53;79.07
62697;BME280;48761;42.680;23.312;2023-11-18T03:59:36;94180.25;;;4.45;78.46
62697;BME280;48761;42.680;23.312;2023-11-18T04:02:01;94192.38;;;4.47;78.82
62697;BME280;48761;42.680;23.312;2023-11-18T04:04:28;94193.59;;;4.42;78.05
62697;BME280;48761;42.680;23.312;2023-11-18T04:06:55;94195.53;;;4.54;78.62
62697;BME280;48761;42.680;23.312;2023-11-18T04:09:21;94218.38;;;4.54;78.06
62697;BME280;48761;42.680;23.312;2023-11-18T04:11:47;94233.81;;;4.60;76.99
62697;BME280;48761;42.680;23.312;2023-11-18T04:14:13;94207.44;;;4.29;76.27
62697;BME280;48761;42.680;23.312;2023-11-18T04:16:40;94174.69;;;4.19;77.21
62697;BME280;48761;42.680;23.312;2023-11-18T04:19:06;94195.38;;;4.41;76.92
62697;BME280;48761;42.680;23.312;2023-11-18T04:21:32;94219.63;;;4.30;76.79
62697;BME280;48761;42.680;23.312;2023-11-18T04:23:58;94243.75;;;4.39;76.72
62697;BME280;48761;42.680;23.312;2023-11-18T04:26:24;94228.75;;;4.24;77.24
62697;BME280;48761;42.680;23.312;2023-11-18T04:28:50;94226.75;;;4.60;76.34
62697;BME280;48761;42.680;23.312;2023-11-18T04:31:16;94226.25;;;4.70;75.45
62697;BME280;48761;42.680;23.312;2023-11-18T04:33:42;94227.94;;;4.71;75.12
62697;BME280;48761;42.680;23.312;2023-11-18T04:36:09;94216.53;;;4.40;75.86
62697;BME280;48761;42.680;23.312;2023-11-18T04:38:37;94234.59;;;4.13;76.51
62697;BME280;48761;42.680;23.312;2023-11-18T04:41:04;94239.69;;;4.49;76.46
62697;BME280;48761;42.680;23.312;2023-11-18T04:43:29;94234.59;;;4.46;76.23
62697;BME280;48761;42.680;23.312;2023-11-18T04:45:56;94232.13;;;4.10;76.66
62697;BME280;48761;42.680;23.312;2023-11-18T04:48:23;94232.28;;;4.56;75.43
62697;BME280;48761;42.680;23.312;2023-11-18T04:50:49;94247.66;;;4.31;76.06
62697;BME280;48761;42.680;23.312;2023-11-18T04:53:14;94240.50;;;4.01;77.14
62697;BME280;48761;42.680;23.312;2023-11-18T04:55:41;94256.56;;;4.12;76.60
62697;BME280;48761;42.680;23.312;2023-11-18T04:58:07;94235.75;;;4.08;75.72
62697;BME280;48761;42.680;23.312;2023-11-18T05:00:33;94230.34;;;4.11;76.06
62697;BME280;48761;42.680;23.312;2023-11-18T05:02:59;94228.56;;;4.44;74.96
62697;BME280;48761;42.680;23.312;2023-11-18T05:05:25;94229.16;;;4.33;75.57
62697;BME280;48761;42.680;23.312;2023-11-18T05:07:51;94220.16;;;4.37;75.53
62697;BME280;48761;42.680;23.312;2023-11-18T05:10:41;94189.88;;;4.13;75.19
62697;BME280;48761;42.680;23.312;2023-11-18T05:13:33;94162.59;;;3.82;75.63
62697;BME280;48761;42.680;23.312;2023-11-18T05:15:59;94207.75;;;4.23;75.57
62697;BME280;48761;42.680;23.312;2023-11-18T05:18:25;94209.03;;;4.15;75.65
62697;BME280;48761;42.680;23.312;2023-11-18T05:20:51;94192.50;;;4.13;74.93
62697;BME280;48761;42.680;23.312;2023-11-18T05:23:17;94213.03;;;4.23;75.22
62697;BME280;48761;42.680;23.312;2023-11-18T05:25:43;94213.19;;;4.20;74.42
62697;BME280;48761;42.680;23.312;2023-11-18T05:28:09;94219.84;;;4.27;75.47
62697;BME280;48761;42.680;23.312;2023-11-18T05:30:35;94209.09;;;3.98;75.07
62697;BME280;48761;42.680;23.312;2023-11-18T05:33:05;94203.53;;;4.04;74.33
62697;BME280;48761;42.680;23.312;2023-11-18T05:35:32;94200.16;;;4.02;75.10
62697;BME280;48761;42.680;23.312;2023-11-18T05:37:58;94191.56;;;4.31;73.56
62697;BME280;48761;42.680;23.312;2023-11-18T05:40:27;94185.19;;;4.02;75.06
62697;BME280;48761;42.680;23.312;2023-11-18T05:42:53;94190.78;;;4.12;74.27
62697;BME280;48761;42.680;23.312;2023-11-18T05:45:18;94206.31;;;4.01;74.76
62697;BME280;48761;42.680;23.312;2023-11-18T05:47:44;94187.84;;;3.52;75.01
62697;BME280;48761;42.680;23.312;2023-11-18T05:50:10;94220.09;;;3.72;75.37
62697;BME280;48761;42.680;23.312;2023-11-18T05:52:37;94216.09;;;3.99;74.43
62697;BME280;48761;42.680;23.312;2023-11-18T05:55:03;94219.31;;;4.04;74.79
62697;BME280;48761;42.680;23.312;2023-11-18T05:57:29;94229.03;;;3.52;75.08
62697;BME280;48761;42.680;23.312;2023-11-18T05:59:55;94220.31;;;4.01;75.64
62697;BME280;48761;42.680;23.312;2023-11-18T06:02:21;94214.53;;;3.95;74.47
62697;BME280;48761;42.680;23.312;2023-11-18T06:04:47;94214.72;;;3.91;74.24
62697;BME280;48761;42.680;23.312;2023-11-18T06:07:13;94234.34;;;3.68;74.96
62697;BME280;48761;42.680;23.312;2023-11-18T06:09:40;94233.50;;;3.67;75.34
62697;BME280;48761;42.680;23.312;2023-11-18T06:12:07;94244.38;;;3.77;74.99
62697;BME280;48761;42.680;23.312;2023-11-18T06:14:32;94254.63;;;3.82;76.27
62697;BME280;48761;42.680;23.312;2023-11-18T06:16:58;94245.06;;;3.81;76.72
62697;BME280;48761;42.680;23.312;2023-11-18T06:19:25;94243.97;;;3.85;77.38
62697;BME280;48761;42.680;23.312;2023-11-18T06:25:27;94219.78;;;3.78;77.68
62697;BME280;48761;42.680;23.312;2023-11-18T06:27:56;94213.66;;;3.78;77.24
62697;BME280;48761;42.680;23.312;2023-11-18T06:30:22;94242.69;;;3.76;76.78
62697;BME280;48761;42.680;23.312;2023-11-18T06:32:48;94237.44;;;3.76;76.68
62697;BME280;48761;42.680;23.312;2023-11-18T06:35:14;94232.53;;;4.02;76.46
62697;BME280;48761;42.680;23.312;2023-11-18T06:37:40;94242.38;;;3.99;76.48
62697;BME280;48761;42.680;23.312;2023-11-18T06:40:07;94229.84;;;4.04;75.51
62697;BME280;48761;42.680;23.312;2023-11-18T06:42:33;94229.75;;;4.06;74.91
62697;BME280;48761;42.680;23.312;2023-11-18T06:44:59;94242.09;;;3.87;75.20
62697;BME280;48761;42.680;23.312;2023-11-18T06:47:25;94242.13;;;3.69;75.18
62697;BME280;48761;42.680;23.312;2023-11-18T06:49:51;94245.78;;;4.01;74.01
62697;BME280;48761;42.680;23.312;2023-11-18T06:52:16;94242.56;;;4.28;73.37
62697;BME280;48761;42.680;23.312;2023-11-18T06:54:42;94252.91;;;3.99;73.40
62697;BME280;48761;42.680;23.312;2023-11-18T06:57:08;94236.31;;;3.80;72.99
62697;BME280;48761;42.680;23.312;2023-11-18T06:59:34;94253.22;;;3.92;73.53
62697;BME280;48761;42.680;23.312;2023-11-18T07:02:00;94263.00;;;4.07;73.46
62697;BME280;48761;42.680;23.312;2023-11-18T07:04:26;94259.38;;;4.09;72.95
62697;BME280;48761;42.680;23.312;2023-11-18T07:06:52;94255.78;;;3.94;72.30
62697;BME280;48761;42.680;23.312;2023-11-18T07:09:18;94258.53;;;4.41;72.65
62697;BME280;48761;42.680;23.312;2023-11-18T07:11:44;94257.84;;;4.21;72.76
62697;BME280;48761;42.680;23.312;2023-11-18T07:14:11;94254.94;;;3.94;73.02
62697;BME280;48761;42.680;23.312;2023-11-18T07:16:39;94270.88;;;3.90;73.64
62697;BME280;48761;42.680;23.312;2023-11-18T07:19:05;94255.84;;;3.92;73.54
62697;BME280;48761;42.680;23.312;2023-11-18T07:21:31;94258.00;;;4.02;73.44
62697;BME280;48761;42.680;23.312;2023-11-18T07:23:57;94261.72;;;3.98;73.71
62697;BME280;48761;42.680;23.312;2023-11-18T07:26:24;94254.22;;;3.90;73.83
62697;BME280;48761;42.680;23.312;2023-11-18T07:28:50;94275.16;;;4.09;74.63
62697;BME280;48761;42.680;23.312;2023-11-18T07:31:16;94269.81;;;3.77;74.12
62697;BME280;48761;42.680;23.312;2023-11-18T07:33:42;94269.84;;;3.93;73.81
62697;BME280;48761;42.680;23.312;2023-11-18T07:36:08;94274.41;;;3.89;74.26
62697;BME280;48761;42.680;23.312;2023-11-18T07:38:34;94270.63;;;3.61;74.17
62697;BME280;48761;42.680;23.312;2023-11-18T07:41:00;94269.53;;;3.65;74.47
62697;BME280;48761;42.680;23.312;2023-11-18T07:43:27;94280.09;;;3.81;74.82
62697;BME280;48761;42.680;23.312;2023-11-18T07:45:53;94297.31;;;3.87;74.41
62697;BME280;48761;42.680;23.312;2023-11-18T07:48:19;94277.88;;;3.74;74.62
62697;BME280;48761;42.680;23.312;2023-11-18T07:50:45;94278.56;;;3.59;74.79
62697;BME280;48761;42.680;23.312;2023-11-18T07:53:11;94284.59;;;3.62;74.12
62697;BME280;48761;42.680;23.312;2023-11-18T07:55:37;94269.16;;;3.89;73.48
62697;BME280;48761;42.680;23.312;2023-11-18T07:58:03;94268.88;;;3.78;73.96
62697;BME280;48761;42.680;23.312;2023-11-18T08:00:29;94268.44;;;3.69;74.44
62697;BME280;48761;42.680;23.312;2023-11-18T08:02:55;94267.00;;;3.64;74.72
62697;BME280;48761;42.680;23.312;2023-11-18T08:05:21;94285.75;;;3.74;73.91
62697;BME280;48761;42.680;23.312;2023-11-18T08:07:48;94291.16;;;3.70;73.79
62697;BME280;48761;42.680;23.312;2023-11-18T08:10:14;94290.38;;;3.86;73.73
62697;BME280;48761;42.680;23.312;2023-11-18T08:12:40;94268.06;;;3.59;73.78
62697;BME280;48761;42.680;23.312;2023-11-18T08:15:07;94284.81;;;3.75;73.97
62697;BME280;48761;42.680;23.312;2023-11-18T08:17:33;94292.00;;;3.89;73.10
62697;BME280;48761;42.680;23.312;2023-11-18T08:19:59;94287.75;;;4.02;73.37
62697;BME280;48761;42.680;23.312;2023-11-18T08:22:25;94301.63;;;3.54;74.03
62697;BME280;48761;42.680;23.312;2023-11-18T08:24:51;94295.91;;;3.64;73.05
62697;BME280;48761;42.680;23.312;2023-11-18T08:27:17;94296.28;;;3.74;73.27
62697;BME280;48761;42.680;23.312;2023-11-18T08:29:43;94280.00;;;3.83;73.01
62697;BME280;48761;42.680;23.312;2023-11-18T08:32:09;94283.91;;;3.76;73.34
62697;BME280;48761;42.680;23.312;2023-11-18T08:34:35;94292.53;;;3.78;73.41
62697;BME280;48761;42.680;23.312;2023-11-18T08:37:01;94300.09;;;4.02;73.46
62697;BME280;48761;42.680;23.312;2023-11-18T08:39:27;94303.06;;;3.78;73.77
62697;BME280;48761;42.680;23.312;2023-11-18T08:41:53;94281.31;;;3.74;74.20
62697;BME280;48761;42.680;23.312;2023-11-18T08:44:20;94320.78;;;4.08;73.33
62697;BME280;48761;42.680;23.312;2023-11-18T08:46:47;94304.50;;;4.01;72.44
62697;BME280;48761;42.680;23.312;2023-11-18T08:49:13;94305.06;;;3.90;72.65
62697;BME280;48761;42.680;23.312;2023-11-18T08:51:40;94325.63;;;3.82;72.95
62697;BME280;48761;42.680;23.312;2023-11-18T08:54:06;94311.06;;;3.92;72.20
62697;BME280;48761;42.680;23.312;2023-11-18T08:56:31;94324.25;;;3.75;72.37
62697;BME280;48761;42.680;23.312;2023-11-18T08:58:57;94317.84;;;3.80;73.26
62697;BME280;48761;42.680;23.312;2023-11-18T09:01:23;94300.91;;;3.68;73.37
62697;BME280;48761;42.680;23.312;2023-11-18T09:03:49;94300.16;;;3.49;74.23
62697;BME280;48761;42.680;23.312;2023-11-18T09:06:15;94307.44;;;3.61;74.15
62697;BME280;48761;42.680;23.312;2023-11-18T09:08:41;94303.94;;;3.95;72.91
62697;BME280;48761;42.680;23.312;2023-11-18T09:11:08;94298.81;;;3.75;72.68
62697;BME280;48761;42.680;23.312;2023-11-18T09:13:35;94302.88;;;3.47;73.39
62697;BME280;48761;42.680;23.312;2023-11-18T09:16:05;94301.69;;;3.70;73.61
62697;BME280;48761;42.680;23.312;2023-11-18T09:18:31;94301.06;;;3.65;73.08
62697;BME280;48761;42.680;23.312;2023-11-18T09:20:57;94299.88;;;3.89;73.23
62697;BME280;48761;42.680;23.312;2023-11-18T09:23:23;94319.56;;;3.98;73.53
62697;BME280;48761;42.680;23.312;2023-11-18T09:25:49;94309.88;;;3.64;73.94
62697;BME280;48761;42.680;23.312;2023-11-18T09:28:15;94296.50;;;4.03;72.96
62697;BME280;48761;42.680;23.312;2023-11-18T09:30:42;94306.16;;;3.86;72.94
62697;BME280;48761;42.680;23.312;2023-11-18T09:33:08;94299.66;;;3.76;73.30
62697;BME280;48761;42.680;23.312;2023-11-18T09:35:34;94291.75;;;3.94;73.13
62697;BME280;48761;42.680;23.312;2023-11-18T09:38:00;94299.53;;;3.61;72.68
62697;BME280;48761;42.680;23.312;2023-11-18T09:40:29;94271.63;;;3.58;72.09
62697;BME280;48761;42.680;23.312;2023-11-18T09:42:58;94295.09;;;4.13;71.73
62697;BME280;48761;42.680;23.312;2023-11-18T09:45:25;94298.91;;;4.08;72.46
62697;BME280;48761;42.680;23.312;2023-11-18T09:47:51;94304.09;;;4.09;71.83
62697;BME280;48761;42.680;23.312;2023-11-18T09:50:18;94310.34;;;3.73;73.70
62697;BME280;48761;42.680;23.312;2023-11-18T09:52:48;94313.72;;;3.75;73.13
62697;BME280;48761;42.680;23.312;2023-11-18T09:55:23;94311.72;;;3.80;73.11
62697;BME280;48761;42.680;23.312;2023-11-18T09:57:55;94302.13;;;3.97;73.10
62697;BME280;48761;42.680;23.312;2023-11-18T10:00:28;94309.56;;;3.88;72.08
62697;BME280;48761;42.680;23.312;2023-11-18T10:02:54;94296.66;;;4.00;71.86
62697;BME280;48761;42.680;23.312;2023-11-18T10:05:21;94279.22;;;3.99;71.94
62697;BME280;48761;42.680;23.312;2023-11-18T10:07:47;94282.91;;;3.95;71.94
62697;BME280;48761;42.680;23.312;2023-11-18T10:10:15;94274.72;;;4.01;71.73
62697;BME280;48761;42.680;23.312;2023-11-18T10:12:42;94283.91;;;3.92;72.00
62697;BME280;48761;42.680;23.312;2023-11-18T10:15:13;94291.94;;;3.73;71.56
62697;BME280;48761;42.680;23.312;2023-11-18T10:17:41;94279.84;;;3.86;72.03
62697;BME280;48761;42.680;23.312;2023-11-18T10:20:08;94285.44;;;3.80;71.43
62697;BME280;48761;42.680;23.312;2023-11-18T10:22:34;94291.09;;;4.06;71.57
62697;BME280;48761;42.680;23.312;2023-11-18T10:25:00;94292.25;;;3.84;72.25
62697;BME280;48761;42.680;23.312;2023-11-18T10:27:27;94293.88;;;3.87;71.00
62697;BME280;48761;42.680;23.312;2023-11-18T10:29:57;94303.03;;;3.96;71.28
62697;BME280;48761;42.680;23.312;2023-11-18T10:32:23;94294.44;;;3.92;70.94
62697;BME280;48761;42.680;23.312;2023-11-18T10:34:58;94290.84;;;3.77;71.27
62697;BME280;48761;42.680;23.312;2023-11-18T10:37:27;94313.91;;;4.06;70.86
62697;BME280;48761;42.680;23.312;2023-11-18T10:39:53;94303.78;;;3.98;70.32
62697;BME280;48761;42.680;23.312;2023-11-18T10:42:19;94301.53;;;3.74;71.04
62697;BME280;48761;42.680;23.312;2023-11-18T10:44:58;94301.56;;;3.90;70.92
62697;BME280;48761;42.680;23.312;2023-11-18T10:47:25;94304.78;;;3.79;70.99
62697;BME280;48761;42.680;23.312;2023-11-18T10:49:51;94310.19;;;3.76;70.88
62697;BME280;48761;42.680;23.312;2023-11-18T10:52:19;94291.63;;;3.79;71.66
62697;BME280;48761;42.680;23.312;2023-11-18T10:54:52;94299.75;;;4.08;70.89
62697;BME280;48761;42.680;23.312;2023-11-18T10:57:18;94297.88;;;3.94;70.82
62697;BME280;48761;42.680;23.312;2023-11-18T11:00:01;94308.31;;;3.78;69.89
62697;BME280;48761;42.680;23.312;2023-11-18T11:02:30;94284.63;;;3.96;71.04
62697;BME280;48761;42.680;23.312;2023-11-18T11:04:56;94274.91;;;3.80;70.67
62697;BME280;48761;42.680;23.312;2023-11-18T11:07:33;94252.06;;;3.46;70.26
62697;BME280;48761;42.680;23.312;2023-11-18T11:10:01;94260.50;;;3.87;70.45
62697;BME280;48761;42.680;23.312;2023-11-18T11:12:38;94293.31;;;3.80;70.69
62697;BME280;48761;42.680;23.312;2023-11-18T11:15:17;94297.66;;;3.81;70.34
62697;BME280;48761;42.680;23.312;2023-11-18T11:17:45;94299.56;;;3.77;70.96
62697;BME280;48761;42.680;23.312;2023-11-18T11:20:18;94271.06;;;4.03;71.53
62697;BME280;48761;42.680;23.312;2023-11-18T11:23:06;94291.91;;;3.90;70.01
62697;BME280;48761;42.680;23.312;2023-11-18T11:28:20;94286.50;;;3.94;70.61
62697;BME280;48761;42.680;23.312;2023-11-18T11:30:55;94265.75;;;3.71;71.11
62697;BME280;48761;42.680;23.312;2023-11-18T11:35:56;94286.06;;;3.67;70.99
62697;BME280;48761;42.680;23.312;2023-11-18T11:38:25;94283.53;;;3.66;70.97
62697;BME280;48761;42.680;23.312;2023-11-18T11:40:57;94273.53;;;3.73;71.36
62697;BME280;48761;42.680;23.312;2023-11-18T11:43:27;94270.41;;;3.82;71.26
62697;BME280;48761;42.680;23.312;2023-11-18T11:45:55;94283.09;;;3.91;71.14
62697;BME280;48761;42.680;23.312;2023-11-18T11:48:25;94272.94;;;4.01;70.37
62697;BME280;48761;42.680;23.312;2023-11-18T11:53:36;94270.78;;;3.92;70.45
62697;BME280;48761;42.680;23.312;2023-11-18T11:56:05;94248.19;;;3.72;70.70
62697;BME280;48761;42.680;23.312;2023-11-18T11:58:35;94257.53;;;3.59;71.46
62697;BME280;48761;42.680;23.312;2023-11-18T12:01:28;94269.16;;;3.89;70.95
62697;BME280;48761;42.680;23.312;2023-11-18T12:04:10;94273.22;;;3.79;70.86
62697;BME280;48761;42.680;23.312;2023-11-18T12:06:45;94271.19;;;3.84;71.51
62697;BME280;48761;42.680;23.312;2023-11-18T12:09:21;94272.16;;;3.65;71.35
62697;BME280;48761;42.680;23.312;2023-11-18T12:11:51;94262.16;;;3.72;71.44
62697;BME280;48761;42.680;23.312;2023-11-18T12:14:17;94279.28;;;3.97;70.85
62697;BME280;48761;42.680;23.312;2023-11-18T12:17:07;94281.38;;;3.90;71.59
62697;BME280;48761;42.680;23.312;2023-11-18T12:19:35;94240.47;;;3.85;71.00
62697;BME280;48761;42.680;23.312;2023-11-18T12:22:01;94246.78;;;3.64;71.01
62697;BME280;48761;42.680;23.312;2023-11-18T12:24:29;94285.38;;;3.98;70.94
62697;BME280;48761;42.680;23.312;2023-11-18T12:26:55;94267.97;;;3.79;70.91
62697;BME280;48761;42.680;23.312;2023-11-18T12:29:31;94268.53;;;4.02;70.66
62697;BME280;48761;42.680;23.312;2023-11-18T12:31:57;94263.78;;;4.09;71.63
62697;BME280;48761;42.680;23.312;2023-11-18T12:34:23;94258.47;;;3.92;70.48
62697;BME280;48761;42.680;23.312;2023-11-18T12:37:17;94255.94;;;3.91;71.18
62697;BME280;48761;42.680;23.312;2023-11-18T12:40:40;94264.78;;;4.06;70.77
62697;BME280;48761;42.680;23.312;2023-11-18T12:42:58;94251.72;;;3.70;71.59
62697;BME280;48761;42.680;23.312;2023-11-18T12:46:20;94284.31;;;4.02;71.35
62697;BME280;48761;42.680;23.312;2023-11-18T12:48:21;94285.56;;;3.77;71.30
62697;BME280;48761;42.680;23.312;2023-11-18T12:50:47;94286.38;;;3.79;71.25
62697;BME280;48761;42.680;23.312;2023-11-18T12:53:13;94283.25;;;3.88;70.97
62697;BME280;48761;42.680;23.312;2023-11-18T12:55:39;94264.63;;;3.75;70.99
62697;BME280;48761;42.680;23.312;2023-11-18T12:58:07;94292.97;;;4.04;71.20
62697;BME280;48761;42.680;23.312;2023-11-18T13:00:33;94281.88;;;3.81;71.41
62697;BME280;48761;42.680;23.312;2023-11-18T13:03:00;94295.75;;;4.01;71.47
62697;BME280;48761;42.680;23.312;2023-11-18T13:05:32;94288.13;;;4.12;71.14
62697;BME280;48761;42.680;23.312;2023-11-18T13:07:58;94294.84;;;4.02;71.00
62697;BME280;48761;42.680;23.312;2023-11-18T13:10:24;94284.56;;;4.13;71.04
62697;BME280;48761;42.680;23.312;2023-11-18T13:12:50;94290.53;;;3.83;70.87
62697;BME280;48761;42.680;23.312;2023-11-18T13:15:16;94298.91;;;3.74;71.76
62697;BME280;48761;42.680;23.312;2023-11-18T13:18:02;94296.50;;;3.87;71.91